sensor_id;sensor_type;location;lat;lon;timestamp;temperature;humidity
9450;DHT22;4763;48.370;10.874;2022-07-12T00:01:24;14.10;99.90
9450;DHT22;4763;48.370;10.874;2022-07-12T00:04:11;14.10;99.90
9450;DHT22;4763;48.370;10.874;2022-07-12T00:06:58;14.00;99.90
9450;DHT22;4763;48.370;10.874;2022-07-12T00:09:46;13.90;99.90
9450;DHT22;4763;48.370;10.874;2022-07-12T00:12:33;13.90;99.90
9450;DHT22;4763;48.370;10.874;2022-07-12T00:15:20;13.90;99.90
9450;DHT22;4763;48.370;10.874;2022-07-12T00:18:09;13.90;99.90
9450;DHT22;4763;48.370;10.874;2022-07-12T00:20:57;13.80;99.90
9450;DHT22;4763;48.370;10.874;2022-07-12T00:23:44;13.80;99.90
9450;DHT22;4763;48.370;10.874;2022-07-12T00:26:31;13.70;99.90
9450;DHT22;4763;48.370;10.874;2022-07-12T00:29:18;13.70;99.90
9450;DHT22;4763;48.370;10.874;2022-07-12T00:32:06;13.70;99.90
9450;DHT22;4763;48.370;10.874;2022-07-12T00:34:56;13.70;99.90
9450;DHT22;4763;48.370;10.874;2022-07-12T00:37:43;13.70;99.90
9450;DHT22;4763;48.370;10.874;2022-07-12T00:40:30;13.80;99.90
9450;DHT22;4763;48.370;10.874;2022-07-12T00:43:17;13.80;99.90
9450;DHT22;4763;48.370;10.874;2022-07-12T00:46:04;13.70;99.90
9450;DHT22;4763;48.370;10.874;2022-07-12T00:48:52;13.60;99.90
9450;DHT22;4763;48.370;10.874;2022-07-12T00:51:42;13.60;99.90
9450;DHT22;4763;48.370;10.874;2022-07-12T00:54:30;13.60;99.90
9450;DHT22;4763;48.370;10.874;2022-07-12T00:57:17;13.60;99.90
9450;DHT22;4763;48.370;10.874;2022-07-12T01:00:07;13.60;99.90
9450;DHT22;4763;48.370;10.874;2022-07-12T01:02:56;13.60;99.90
9450;DHT22;4763;48.370;10.874;2022-07-12T01:05:43;13.60;99.90
9450;DHT22;4763;48.370;10.874;2022-07-12T01:08:33;13.60;99.90
9450;DHT22;4763;48.370;10.874;2022-07-12T01:11:21;13.50;99.90
9450;DHT22;4763;48.370;10.874;2022-07-12T01:14:08;13.50;99.90
9450;DHT22;4763;48.370;10.874;2022-07-12T01:16:57;13.50;99.90
9450;DHT22;4763;48.370;10.874;2022-07-12T01:19:44;13.50;99.90
9450;DHT22;4763;48.370;10.874;2022-07-12T01:22:34;13.40;99.90
9450;DHT22;4763;48.370;10.874;2022-07-12T01:25:23;13.40;99.90
9450;DHT22;4763;48.370;10.874;2022-07-12T01:28:10;13.30;99.90
9450;DHT22;4763;48.370;10.874;2022-07-12T01:30:59;13.20;99.90
9450;DHT22;4763;48.370;10.874;2022-07-12T01:33:46;13.20;99.90
9450;DHT22;4763;48.370;10.874;2022-07-12T01:36:34;13.20;99.90
9450;DHT22;4763;48.370;10.874;2022-07-12T01:39:22;13.10;99.90
9450;DHT22;4763;48.370;10.874;2022-07-12T01:42:11;13.10;99.90
9450;DHT22;4763;48.370;10.874;2022-07-12T01:44:58;13.20;99.90
9450;DHT22;4763;48.370;10.874;2022-07-12T01:47:46;13.10;99.90
9450;DHT22;4763;48.370;10.874;2022-07-12T01:50:35;13.10;99.90
9450;DHT22;4763;48.370;10.874;2022-07-12T01:53:22;13.10;99.90
9450;DHT22;4763;48.370;10.874;2022-07-12T01:56:10;13.00;99.90
9450;DHT22;4763;48.370;10.874;2022-07-12T01:58:59;13.00;99.90
9450;DHT22;4763;48.370;10.874;2022-07-12T02:01:47;13.00;99.90
9450;DHT22;4763;48.370;10.874;2022-07-12T02:04:35;13.10;99.90
9450;DHT22;4763;48.370;10.874;2022-07-12T02:07:23;13.10;99.90
9450;DHT22;4763;48.370;10.874;2022-07-12T02:10:11;13.10;99.90
9450;DHT22;4763;48.370;10.874;2022-07-12T02:12:58;13.00;99.90
9450;DHT22;4763;48.370;10.874;2022-07-12T02:15:51;13.00;99.90
9450;DHT22;4763;48.370;10.874;2022-07-12T02:18:38;13.00;99.90
9450;DHT22;4763;48.370;10.874;2022-07-12T02:21:25;12.90;99.90
9450;DHT22;4763;48.370;10.874;2022-07-12T02:24:12;13.00;99.90
9450;DHT22;4763;48.370;10.874;2022-07-12T02:27:00;13.00;99.90
9450;DHT22;4763;48.370;10.874;2022-07-12T02:29:47;13.00;99.90
9450;DHT22;4763;48.370;10.874;2022-07-12T02:32:36;13.00;99.90
9450;DHT22;4763;48.370;10.874;2022-07-12T02:35:23;12.90;99.90
9450;DHT22;4763;48.370;10.874;2022-07-12T02:38:10;12.90;99.90
9450;DHT22;4763;48.370;10.874;2022-07-12T02:40:57;12.90;99.90
9450;DHT22;4763;48.370;10.874;2022-07-12T02:43:45;12.80;99.90
9450;DHT22;4763;48.370;10.874;2022-07-12T02:46:32;12.80;99.90
9450;DHT22;4763;48.370;10.874;2022-07-12T02:49:22;12.90;99.90
9450;DHT22;4763;48.370;10.874;2022-07-12T02:52:10;12.80;99.90
9450;DHT22;4763;48.370;10.874;2022-07-12T02:54:57;12.90;99.90
9450;DHT22;4763;48.370;10.874;2022-07-12T02:57:44;12.90;99.90
9450;DHT22;4763;48.370;10.874;2022-07-12T03:00:31;13.00;99.90
9450;DHT22;4763;48.370;10.874;2022-07-12T03:03:19;13.00;99.90
9450;DHT22;4763;48.370;10.874;2022-07-12T03:06:08;13.00;99.90
9450;DHT22;4763;48.370;10.874;2022-07-12T03:08:55;13.00;99.90
9450;DHT22;4763;48.370;10.874;2022-07-12T03:11:42;13.00;99.90
9450;DHT22;4763;48.370;10.874;2022-07-12T03:14:29;13.00;99.90
9450;DHT22;4763;48.370;10.874;2022-07-12T03:17:17;13.00;99.90
9450;DHT22;4763;48.370;10.874;2022-07-12T03:20:05;13.00;99.90
9450;DHT22;4763;48.370;10.874;2022-07-12T03:22:56;13.00;99.90
9450;DHT22;4763;48.370;10.874;2022-07-12T03:25:43;13.00;99.90
9450;DHT22;4763;48.370;10.874;2022-07-12T03:28:31;13.00;99.90
9450;DHT22;4763;48.370;10.874;2022-07-12T03:31:18;13.00;99.90
9450;DHT22;4763;48.370;10.874;2022-07-12T03:34:05;12.90;99.90
9450;DHT22;4763;48.370;10.874;2022-07-12T03:36:52;12.90;99.90
9450;DHT22;4763;48.370;10.874;2022-07-12T03:39:41;12.90;99.90
9450;DHT22;4763;48.370;10.874;2022-07-12T03:42:29;12.80;99.90
9450;DHT22;4763;48.370;10.874;2022-07-12T03:45:17;12.80;99.90
9450;DHT22;4763;48.370;10.874;2022-07-12T03:48:05;12.70;99.90
9450;DHT22;4763;48.370;10.874;2022-07-12T03:50:52;12.70;99.90
9450;DHT22;4763;48.370;10.874;2022-07-12T03:53:39;12.70;99.90
9450;DHT22;4763;48.370;10.874;2022-07-12T03:56:28;12.80;99.90
9450;DHT22;4763;48.370;10.874;2022-07-12T03:59:33;12.70;99.90
9450;DHT22;4763;48.370;10.874;2022-07-12T04:02:20;12.80;99.90
9450;DHT22;4763;48.370;10.874;2022-07-12T04:05:08;12.80;99.90
9450;DHT22;4763;48.370;10.874;2022-07-12T04:07:56;12.80;99.90
9450;DHT22;4763;48.370;10.874;2022-07-12T04:10:43;12.80;99.90
9450;DHT22;4763;48.370;10.874;2022-07-12T04:13:32;12.80;99.90
9450;DHT22;4763;48.370;10.874;2022-07-12T04:16:19;12.80;99.90
9450;DHT22;4763;48.370;10.874;2022-07-12T04:19:07;12.80;99.90
9450;DHT22;4763;48.370;10.874;2022-07-12T04:21:55;12.80;99.90
9450;DHT22;4763;48.370;10.874;2022-07-12T04:24:42;12.80;99.90
9450;DHT22;4763;48.370;10.874;2022-07-12T04:27:29;12.90;99.90
9450;DHT22;4763;48.370;10.874;2022-07-12T04:30:18;12.90;99.90
9450;DHT22;4763;48.370;10.874;2022-07-12T04:33:05;12.90;99.90
9450;DHT22;4763;48.370;10.874;2022-07-12T04:35:53;12.90;99.90
9450;DHT22;4763;48.370;10.874;2022-07-12T04:38:40;12.90;99.90
9450;DHT22;4763;48.370;10.874;2022-07-12T04:41:28;13.00;99.90
9450;DHT22;4763;48.370;10.874;2022-07-12T04:44:15;13.00;99.90
9450;DHT22;4763;48.370;10.874;2022-07-12T04:47:04;13.00;99.90
9450;DHT22;4763;48.370;10.874;2022-07-12T04:49:51;13.00;99.90
9450;DHT22;4763;48.370;10.874;2022-07-12T04:56:28;13.00;99.90
9450;DHT22;4763;48.370;10.874;2022-07-12T04:59:15;13.00;99.90
9450;DHT22;4763;48.370;10.874;2022-07-12T05:02:04;13.10;99.90
9450;DHT22;4763;48.370;10.874;2022-07-12T05:04:52;13.10;99.90
9450;DHT22;4763;48.370;10.874;2022-07-12T05:07:39;13.10;99.90
9450;DHT22;4763;48.370;10.874;2022-07-12T05:10:27;13.10;99.90
9450;DHT22;4763;48.370;10.874;2022-07-12T05:13:14;13.10;99.90
9450;DHT22;4763;48.370;10.874;2022-07-12T05:16:02;13.20;99.90
9450;DHT22;4763;48.370;10.874;2022-07-12T05:18:52;13.20;99.90
9450;DHT22;4763;48.370;10.874;2022-07-12T05:21:39;13.30;99.90
9450;DHT22;4763;48.370;10.874;2022-07-12T05:24:27;13.30;99.90
9450;DHT22;4763;48.370;10.874;2022-07-12T05:27:15;13.30;99.90
9450;DHT22;4763;48.370;10.874;2022-07-12T05:30:03;13.40;99.90
9450;DHT22;4763;48.370;10.874;2022-07-12T05:32:51;13.40;99.90
9450;DHT22;4763;48.370;10.874;2022-07-12T05:35:40;13.50;99.90
9450;DHT22;4763;48.370;10.874;2022-07-12T05:38:27;13.50;99.90
9450;DHT22;4763;48.370;10.874;2022-07-12T05:41:14;13.60;99.90
9450;DHT22;4763;48.370;10.874;2022-07-12T05:44:01;13.70;99.90
9450;DHT22;4763;48.370;10.874;2022-07-12T05:46:49;13.80;99.90
9450;DHT22;4763;48.370;10.874;2022-07-12T05:49:37;13.90;99.90
9450;DHT22;4763;48.370;10.874;2022-07-12T05:52:26;14.10;99.90
9450;DHT22;4763;48.370;10.874;2022-07-12T05:55:31;14.20;99.90
9450;DHT22;4763;48.370;10.874;2022-07-12T05:58:19;14.30;99.90
9450;DHT22;4763;48.370;10.874;2022-07-12T06:01:07;14.50;99.90
9450;DHT22;4763;48.370;10.874;2022-07-12T06:03:54;14.80;99.90
9450;DHT22;4763;48.370;10.874;2022-07-12T06:06:41;15.00;99.90
9450;DHT22;4763;48.370;10.874;2022-07-12T06:09:32;15.30;99.90
9450;DHT22;4763;48.370;10.874;2022-07-12T06:12:19;15.50;99.90
9450;DHT22;4763;48.370;10.874;2022-07-12T06:15:07;15.60;99.90
9450;DHT22;4763;48.370;10.874;2022-07-12T06:17:54;15.80;99.90
9450;DHT22;4763;48.370;10.874;2022-07-12T06:20:43;15.90;99.90
9450;DHT22;4763;48.370;10.874;2022-07-12T06:23:30;16.20;99.90
9450;DHT22;4763;48.370;10.874;2022-07-12T06:26:19;16.40;99.90
9450;DHT22;4763;48.370;10.874;2022-07-12T06:29:06;16.60;99.90
9450;DHT22;4763;48.370;10.874;2022-07-12T06:31:54;16.80;99.90
9450;DHT22;4763;48.370;10.874;2022-07-12T06:34:41;16.90;99.90
9450;DHT22;4763;48.370;10.874;2022-07-12T06:37:28;17.20;99.90
9450;DHT22;4763;48.370;10.874;2022-07-12T06:40:16;17.40;99.90
9450;DHT22;4763;48.370;10.874;2022-07-12T06:43:09;17.60;99.90
9450;DHT22;4763;48.370;10.874;2022-07-12T06:45:57;17.70;99.90
9450;DHT22;4763;48.370;10.874;2022-07-12T06:48:45;17.80;99.90
9450;DHT22;4763;48.370;10.874;2022-07-12T06:51:33;17.80;99.90
9450;DHT22;4763;48.370;10.874;2022-07-12T06:54:21;17.80;99.90
9450;DHT22;4763;48.370;10.874;2022-07-12T06:57:08;17.80;99.90
9450;DHT22;4763;48.370;10.874;2022-07-12T06:59:57;17.80;99.90
9450;DHT22;4763;48.370;10.874;2022-07-12T07:02:44;17.90;99.90
9450;DHT22;4763;48.370;10.874;2022-07-12T07:05:32;18.10;99.90
9450;DHT22;4763;48.370;10.874;2022-07-12T07:08:19;18.10;99.90
9450;DHT22;4763;48.370;10.874;2022-07-12T07:11:06;18.20;99.90
9450;DHT22;4763;48.370;10.874;2022-07-12T07:13:55;18.40;99.90
9450;DHT22;4763;48.370;10.874;2022-07-12T07:16:43;18.60;99.90
9450;DHT22;4763;48.370;10.874;2022-07-12T07:19:31;18.90;99.90
9450;DHT22;4763;48.370;10.874;2022-07-12T07:22:18;19.10;99.90
9450;DHT22;4763;48.370;10.874;2022-07-12T07:25:06;19.30;99.90
9450;DHT22;4763;48.370;10.874;2022-07-12T07:27:53;19.40;99.90
9450;DHT22;4763;48.370;10.874;2022-07-12T07:30:40;19.40;99.90
9450;DHT22;4763;48.370;10.874;2022-07-12T07:33:40;19.30;99.90
9450;DHT22;4763;48.370;10.874;2022-07-12T07:36:27;19.60;99.90
9450;DHT22;4763;48.370;10.874;2022-07-12T07:39:15;19.90;99.90
9450;DHT22;4763;48.370;10.874;2022-07-12T07:42:03;20.10;99.90
9450;DHT22;4763;48.370;10.874;2022-07-12T07:44:51;20.20;99.90
9450;DHT22;4763;48.370;10.874;2022-07-12T07:47:44;20.50;99.90
9450;DHT22;4763;48.370;10.874;2022-07-12T07:50:33;20.70;99.90
9450;DHT22;4763;48.370;10.874;2022-07-12T07:53:20;20.80;99.90
9450;DHT22;4763;48.370;10.874;2022-07-12T07:56:08;20.90;99.90
9450;DHT22;4763;48.370;10.874;2022-07-12T07:58:55;20.90;99.90
9450;DHT22;4763;48.370;10.874;2022-07-12T08:01:42;21.10;99.90
9450;DHT22;4763;48.370;10.874;2022-07-12T08:04:31;21.30;99.90
9450;DHT22;4763;48.370;10.874;2022-07-12T08:07:19;21.60;99.90
9450;DHT22;4763;48.370;10.874;2022-07-12T08:10:07;21.80;99.90
9450;DHT22;4763;48.370;10.874;2022-07-12T08:12:55;21.80;99.90
9450;DHT22;4763;48.370;10.874;2022-07-12T08:15:43;21.70;99.90
9450;DHT22;4763;48.370;10.874;2022-07-12T08:18:44;21.50;99.90
9450;DHT22;4763;48.370;10.874;2022-07-12T08:21:31;21.80;99.90
9450;DHT22;4763;48.370;10.874;2022-07-12T08:24:20;22.00;99.90
9450;DHT22;4763;48.370;10.874;2022-07-12T08:27:07;21.90;99.90
9450;DHT22;4763;48.370;10.874;2022-07-12T08:29:55;21.70;99.90
9450;DHT22;4763;48.370;10.874;2022-07-12T08:32:45;21.90;99.90
9450;DHT22;4763;48.370;10.874;2022-07-12T08:35:32;22.00;99.90
9450;DHT22;4763;48.370;10.874;2022-07-12T08:38:20;22.10;99.90
9450;DHT22;4763;48.370;10.874;2022-07-12T08:41:11;22.10;99.90
9450;DHT22;4763;48.370;10.874;2022-07-12T08:43:58;22.50;99.90
9450;DHT22;4763;48.370;10.874;2022-07-12T08:46:45;22.20;99.90
9450;DHT22;4763;48.370;10.874;2022-07-12T08:49:33;22.60;99.90
9450;DHT22;4763;48.370;10.874;2022-07-12T08:52:25;22.90;99.90
9450;DHT22;4763;48.370;10.874;2022-07-12T08:55:17;23.10;99.90
9450;DHT22;4763;48.370;10.874;2022-07-12T08:58:17;23.50;99.90
9450;DHT22;4763;48.370;10.874;2022-07-12T09:01:04;23.60;99.90
9450;DHT22;4763;48.370;10.874;2022-07-12T09:04:10;23.80;99.90
9450;DHT22;4763;48.370;10.874;2022-07-12T09:07:13;24.00;99.90
9450;DHT22;4763;48.370;10.874;2022-07-12T09:10:03;23.90;99.90
9450;DHT22;4763;48.370;10.874;2022-07-12T09:12:50;23.70;99.90
9450;DHT22;4763;48.370;10.874;2022-07-12T09:15:39;23.60;99.90
9450;DHT22;4763;48.370;10.874;2022-07-12T09:18:27;23.40;99.90
9450;DHT22;4763;48.370;10.874;2022-07-12T09:21:22;23.30;99.90
9450;DHT22;4763;48.370;10.874;2022-07-12T09:27:02;23.30;99.90
9450;DHT22;4763;48.370;10.874;2022-07-12T09:30:21;23.60;99.90
9450;DHT22;4763;48.370;10.874;2022-07-12T09:36:33;23.90;99.90
9450;DHT22;4763;48.370;10.874;2022-07-12T09:39:41;24.40;99.90
9450;DHT22;4763;48.370;10.874;2022-07-12T09:42:56;24.50;99.90
9450;DHT22;4763;48.370;10.874;2022-07-12T09:45:47;25.10;99.90
9450;DHT22;4763;48.370;10.874;2022-07-12T09:48:34;25.00;99.90
9450;DHT22;4763;48.370;10.874;2022-07-12T09:51:24;24.40;99.90
9450;DHT22;4763;48.370;10.874;2022-07-12T09:54:14;24.40;99.90
9450;DHT22;4763;48.370;10.874;2022-07-12T09:57:14;24.90;99.90
9450;DHT22;4763;48.370;10.874;2022-07-12T10:00:06;24.60;99.90
9450;DHT22;4763;48.370;10.874;2022-07-12T10:02:55;24.50;99.90
9450;DHT22;4763;48.370;10.874;2022-07-12T10:05:45;24.20;99.90
9450;DHT22;4763;48.370;10.874;2022-07-12T10:08:33;24.40;99.90
9450;DHT22;4763;48.370;10.874;2022-07-12T10:11:23;25.10;99.90
9450;DHT22;4763;48.370;10.874;2022-07-12T10:14:12;25.70;99.90
9450;DHT22;4763;48.370;10.874;2022-07-12T10:16:59;25.20;99.90
9450;DHT22;4763;48.370;10.874;2022-07-12T10:19:47;24.70;99.90
9450;DHT22;4763;48.370;10.874;2022-07-12T10:22:34;24.20;99.90
9450;DHT22;4763;48.370;10.874;2022-07-12T10:25:31;24.50;99.90
9450;DHT22;4763;48.370;10.874;2022-07-12T10:28:20;25.20;99.90
9450;DHT22;4763;48.370;10.874;2022-07-12T10:31:08;25.50;99.90
9450;DHT22;4763;48.370;10.874;2022-07-12T10:34:13;25.30;99.90
9450;DHT22;4763;48.370;10.874;2022-07-12T10:37:18;24.90;99.90
9450;DHT22;4763;48.370;10.874;2022-07-12T10:40:15;25.40;99.90
9450;DHT22;4763;48.370;10.874;2022-07-12T10:43:23;25.50;99.90
9450;DHT22;4763;48.370;10.874;2022-07-12T10:46:31;25.50;99.90
9450;DHT22;4763;48.370;10.874;2022-07-12T10:49:25;25.90;99.90
9450;DHT22;4763;48.370;10.874;2022-07-12T10:52:22;25.90;99.90
9450;DHT22;4763;48.370;10.874;2022-07-12T10:55:17;25.80;99.90
9450;DHT22;4763;48.370;10.874;2022-07-12T10:58:05;25.60;99.90
9450;DHT22;4763;48.370;10.874;2022-07-12T11:00:55;25.20;99.90
9450;DHT22;4763;48.370;10.874;2022-07-12T11:03:44;25.40;99.90
9450;DHT22;4763;48.370;10.874;2022-07-12T11:06:34;25.20;99.90
9450;DHT22;4763;48.370;10.874;2022-07-12T11:09:23;25.20;99.90
9450;DHT22;4763;48.370;10.874;2022-07-12T11:12:14;25.50;99.90
9450;DHT22;4763;48.370;10.874;2022-07-12T11:15:03;26.20;99.90
9450;DHT22;4763;48.370;10.874;2022-07-12T11:17:53;25.70;99.90
9450;DHT22;4763;48.370;10.874;2022-07-12T11:20:41;25.60;99.90
9450;DHT22;4763;48.370;10.874;2022-07-12T11:23:29;25.20;99.90
9450;DHT22;4763;48.370;10.874;2022-07-12T11:26:17;24.80;99.90
9450;DHT22;4763;48.370;10.874;2022-07-12T11:29:04;25.00;99.90
9450;DHT22;4763;48.370;10.874;2022-07-12T11:32:00;25.60;99.90
9450;DHT22;4763;48.370;10.874;2022-07-12T11:34:53;25.90;99.90
9450;DHT22;4763;48.370;10.874;2022-07-12T11:37:48;26.10;99.90
9450;DHT22;4763;48.370;10.874;2022-07-12T11:40:36;26.60;99.30
9450;DHT22;4763;48.370;10.874;2022-07-12T11:43:23;26.90;99.90
9450;DHT22;4763;48.370;10.874;2022-07-12T11:46:12;26.90;98.10
9450;DHT22;4763;48.370;10.874;2022-07-12T11:48:59;27.30;98.20
9450;DHT22;4763;48.370;10.874;2022-07-12T11:51:47;27.40;99.90
9450;DHT22;4763;48.370;10.874;2022-07-12T11:54:35;27.50;99.90
9450;DHT22;4763;48.370;10.874;2022-07-12T11:57:23;27.80;99.90
9450;DHT22;4763;48.370;10.874;2022-07-12T12:00:17;28.00;98.40
9450;DHT22;4763;48.370;10.874;2022-07-12T12:03:05;28.10;97.70
9450;DHT22;4763;48.370;10.874;2022-07-12T12:05:55;28.20;96.70
9450;DHT22;4763;48.370;10.874;2022-07-12T12:08:43;28.00;99.80
9450;DHT22;4763;48.370;10.874;2022-07-12T12:11:31;28.50;98.10
9450;DHT22;4763;48.370;10.874;2022-07-12T12:14:18;28.40;97.40
9450;DHT22;4763;48.370;10.874;2022-07-12T12:17:12;28.40;95.80
9450;DHT22;4763;48.370;10.874;2022-07-12T12:20:08;28.30;96.90
9450;DHT22;4763;48.370;10.874;2022-07-12T12:22:57;28.40;95.40
9450;DHT22;4763;48.370;10.874;2022-07-12T12:25:46;28.40;95.70
9450;DHT22;4763;48.370;10.874;2022-07-12T12:28:41;28.50;99.60
9450;DHT22;4763;48.370;10.874;2022-07-12T12:31:28;28.60;97.20
9450;DHT22;4763;48.370;10.874;2022-07-12T12:34:16;28.70;96.00
9450;DHT22;4763;48.370;10.874;2022-07-12T12:37:04;28.50;95.70
9450;DHT22;4763;48.370;10.874;2022-07-12T12:39:51;27.80;94.50
9450;DHT22;4763;48.370;10.874;2022-07-12T12:42:40;27.10;96.30
9450;DHT22;4763;48.370;10.874;2022-07-12T12:45:27;27.60;98.60
9450;DHT22;4763;48.370;10.874;2022-07-12T12:48:18;27.90;97.60
9450;DHT22;4763;48.370;10.874;2022-07-12T12:51:07;28.10;99.20
9450;DHT22;4763;48.370;10.874;2022-07-12T12:53:55;28.70;94.00
9450;DHT22;4763;48.370;10.874;2022-07-12T12:56:43;28.70;96.00
9450;DHT22;4763;48.370;10.874;2022-07-12T12:59:32;28.60;94.70
9450;DHT22;4763;48.370;10.874;2022-07-12T13:02:19;28.90;96.10
9450;DHT22;4763;48.370;10.874;2022-07-12T13:05:09;29.20;95.80
9450;DHT22;4763;48.370;10.874;2022-07-12T13:07:57;29.30;96.40
9450;DHT22;4763;48.370;10.874;2022-07-12T13:10:45;29.60;93.30
9450;DHT22;4763;48.370;10.874;2022-07-12T13:13:34;29.70;96.30
9450;DHT22;4763;48.370;10.874;2022-07-12T13:16:23;29.90;96.10
9450;DHT22;4763;48.370;10.874;2022-07-12T13:19:11;30.20;98.20
9450;DHT22;4763;48.370;10.874;2022-07-12T13:21:58;29.80;93.60
9450;DHT22;4763;48.370;10.874;2022-07-12T13:24:46;30.00;95.80
9450;DHT22;4763;48.370;10.874;2022-07-12T13:27:34;30.10;95.20
9450;DHT22;4763;48.370;10.874;2022-07-12T13:30:21;29.80;95.50
9450;DHT22;4763;48.370;10.874;2022-07-12T13:33:10;30.00;94.20
9450;DHT22;4763;48.370;10.874;2022-07-12T13:36:08;29.80;96.90
9450;DHT22;4763;48.370;10.874;2022-07-12T13:38:55;29.90;92.70
9450;DHT22;4763;48.370;10.874;2022-07-12T13:42:03;30.20;97.50
9450;DHT22;4763;48.370;10.874;2022-07-12T13:44:50;30.20;94.20
9450;DHT22;4763;48.370;10.874;2022-07-12T13:47:38;30.20;92.50
9450;DHT22;4763;48.370;10.874;2022-07-12T13:50:27;30.50;94.80
9450;DHT22;4763;48.370;10.874;2022-07-12T13:53:14;30.80;93.70
9450;DHT22;4763;48.370;10.874;2022-07-12T13:56:02;31.00;91.80
9450;DHT22;4763;48.370;10.874;2022-07-12T13:58:50;30.60;95.80
9450;DHT22;4763;48.370;10.874;2022-07-12T14:01:37;30.60;90.30
9450;DHT22;4763;48.370;10.874;2022-07-12T14:04:25;30.40;92.20
9450;DHT22;4763;48.370;10.874;2022-07-12T14:07:13;30.20;93.90
9450;DHT22;4763;48.370;10.874;2022-07-12T14:10:01;30.50;95.40
9450;DHT22;4763;48.370;10.874;2022-07-12T14:12:49;30.90;96.30
9450;DHT22;4763;48.370;10.874;2022-07-12T14:15:37;30.80;89.60
9450;DHT22;4763;48.370;10.874;2022-07-12T14:18:24;30.80;93.50
9450;DHT22;4763;48.370;10.874;2022-07-12T14:21:11;30.30;93.30
9450;DHT22;4763;48.370;10.874;2022-07-12T14:24:00;30.10;92.80
9450;DHT22;4763;48.370;10.874;2022-07-12T14:26:47;30.00;90.10
9450;DHT22;4763;48.370;10.874;2022-07-12T14:29:35;30.20;91.50
9450;DHT22;4763;48.370;10.874;2022-07-12T14:32:22;30.40;93.00
9450;DHT22;4763;48.370;10.874;2022-07-12T14:35:10;30.30;94.00
9450;DHT22;4763;48.370;10.874;2022-07-12T14:37:57;30.60;95.30
9450;DHT22;4763;48.370;10.874;2022-07-12T14:40:46;31.00;93.00
9450;DHT22;4763;48.370;10.874;2022-07-12T14:43:33;30.60;90.60
9450;DHT22;4763;48.370;10.874;2022-07-12T14:46:21;30.70;88.90
9450;DHT22;4763;48.370;10.874;2022-07-12T14:49:08;30.50;89.10
9450;DHT22;4763;48.370;10.874;2022-07-12T14:51:56;30.40;90.00
9450;DHT22;4763;48.370;10.874;2022-07-12T14:54:44;30.50;88.70
9450;DHT22;4763;48.370;10.874;2022-07-12T14:57:32;30.20;88.50
9450;DHT22;4763;48.370;10.874;2022-07-12T15:00:20;30.30;91.00
9450;DHT22;4763;48.370;10.874;2022-07-12T15:03:07;30.20;92.50
9450;DHT22;4763;48.370;10.874;2022-07-12T15:05:55;30.40;90.10
9450;DHT22;4763;48.370;10.874;2022-07-12T15:08:42;30.90;92.50
9450;DHT22;4763;48.370;10.874;2022-07-12T15:11:29;31.10;91.60
9450;DHT22;4763;48.370;10.874;2022-07-12T15:14:18;31.40;90.60
9450;DHT22;4763;48.370;10.874;2022-07-12T15:17:05;30.90;85.30
9450;DHT22;4763;48.370;10.874;2022-07-12T15:19:53;30.50;89.80
9450;DHT22;4763;48.370;10.874;2022-07-12T15:22:40;30.60;91.80
9450;DHT22;4763;48.370;10.874;2022-07-12T15:25:27;30.70;89.90
9450;DHT22;4763;48.370;10.874;2022-07-12T15:28:15;30.60;86.80
9450;DHT22;4763;48.370;10.874;2022-07-12T15:31:03;30.50;90.50
9450;DHT22;4763;48.370;10.874;2022-07-12T15:33:51;31.00;84.30
9450;DHT22;4763;48.370;10.874;2022-07-12T15:36:40;31.50;90.70
9450;DHT22;4763;48.370;10.874;2022-07-12T15:39:28;30.80;87.70
9450;DHT22;4763;48.370;10.874;2022-07-12T15:42:15;30.50;85.60
9450;DHT22;4763;48.370;10.874;2022-07-12T15:45:03;30.50;89.90
9450;DHT22;4763;48.370;10.874;2022-07-12T15:47:53;30.60;87.50
9450;DHT22;4763;48.370;10.874;2022-07-12T15:50:40;30.60;88.70
9450;DHT22;4763;48.370;10.874;2022-07-12T15:53:27;30.50;88.80
9450;DHT22;4763;48.370;10.874;2022-07-12T15:56:14;30.80;85.70
9450;DHT22;4763;48.370;10.874;2022-07-12T15:59:01;30.80;82.00
9450;DHT22;4763;48.370;10.874;2022-07-12T16:01:49;30.80;85.20
9450;DHT22;4763;48.370;10.874;2022-07-12T16:04:37;30.90;87.20
9450;DHT22;4763;48.370;10.874;2022-07-12T16:07:25;31.20;83.30
9450;DHT22;4763;48.370;10.874;2022-07-12T16:10:13;31.20;80.80
9450;DHT22;4763;48.370;10.874;2022-07-12T16:13:00;30.40;82.00
9450;DHT22;4763;48.370;10.874;2022-07-12T16:15:48;30.20;82.40
9450;DHT22;4763;48.370;10.874;2022-07-12T16:18:35;29.50;78.70
9450;DHT22;4763;48.370;10.874;2022-07-12T16:21:24;29.60;85.20
9450;DHT22;4763;48.370;10.874;2022-07-12T16:24:12;29.30;81.20
9450;DHT22;4763;48.370;10.874;2022-07-12T16:27:00;29.20;88.40
9450;DHT22;4763;48.370;10.874;2022-07-12T16:29:47;29.20;88.10
9450;DHT22;4763;48.370;10.874;2022-07-12T16:32:35;28.90;83.30
9450;DHT22;4763;48.370;10.874;2022-07-12T16:35:22;28.40;87.00
9450;DHT22;4763;48.370;10.874;2022-07-12T16:38:12;28.40;84.90
9450;DHT22;4763;48.370;10.874;2022-07-12T16:40:59;28.20;87.30
9450;DHT22;4763;48.370;10.874;2022-07-12T16:43:47;28.20;91.60
9450;DHT22;4763;48.370;10.874;2022-07-12T16:46:34;28.40;87.10
9450;DHT22;4763;48.370;10.874;2022-07-12T16:49:24;28.10;88.70
9450;DHT22;4763;48.370;10.874;2022-07-12T16:52:12;27.90;86.10
9450;DHT22;4763;48.370;10.874;2022-07-12T16:55:04;28.10;90.70
9450;DHT22;4763;48.370;10.874;2022-07-12T16:57:52;28.30;87.20
9450;DHT22;4763;48.370;10.874;2022-07-12T17:00:40;28.50;90.10
9450;DHT22;4763;48.370;10.874;2022-07-12T17:03:27;28.40;86.10
9450;DHT22;4763;48.370;10.874;2022-07-12T17:06:15;28.50;89.10
9450;DHT22;4763;48.370;10.874;2022-07-12T17:09:02;28.60;86.60
9450;DHT22;4763;48.370;10.874;2022-07-12T17:11:54;28.60;88.60
9450;DHT22;4763;48.370;10.874;2022-07-12T17:14:42;28.50;88.30
9450;DHT22;4763;48.370;10.874;2022-07-12T17:17:30;28.20;84.80
9450;DHT22;4763;48.370;10.874;2022-07-12T17:20:17;27.70;85.00
9450;DHT22;4763;48.370;10.874;2022-07-12T17:23:04;27.40;89.00
9450;DHT22;4763;48.370;10.874;2022-07-12T17:25:52;27.20;87.50
9450;DHT22;4763;48.370;10.874;2022-07-12T17:28:41;27.00;88.70
9450;DHT22;4763;48.370;10.874;2022-07-12T17:31:28;26.80;90.00
9450;DHT22;4763;48.370;10.874;2022-07-12T17:34:19;26.60;89.10
9450;DHT22;4763;48.370;10.874;2022-07-12T17:37:06;26.30;90.00
9450;DHT22;4763;48.370;10.874;2022-07-12T17:39:53;26.10;90.40
9450;DHT22;4763;48.370;10.874;2022-07-12T17:42:40;25.90;91.20
9450;DHT22;4763;48.370;10.874;2022-07-12T17:45:30;25.90;90.80
9450;DHT22;4763;48.370;10.874;2022-07-12T17:48:17;25.80;91.10
9450;DHT22;4763;48.370;10.874;2022-07-12T17:51:05;25.70;90.80
9450;DHT22;4763;48.370;10.874;2022-07-12T17:53:53;25.50;90.60
9450;DHT22;4763;48.370;10.874;2022-07-12T17:56:40;25.50;89.50
9450;DHT22;4763;48.370;10.874;2022-07-12T17:59:29;25.30;90.90
9450;DHT22;4763;48.370;10.874;2022-07-12T18:02:18;25.20;91.60
9450;DHT22;4763;48.370;10.874;2022-07-12T18:05:06;25.20;90.70
9450;DHT22;4763;48.370;10.874;2022-07-12T18:07:56;25.00;90.00
9450;DHT22;4763;48.370;10.874;2022-07-12T18:10:43;24.80;91.10
9450;DHT22;4763;48.370;10.874;2022-07-12T18:13:30;24.70;92.50